Shreve Island, Louisiana
Current Conditions -  °F | °C
As of 1:58 AM on Tuesday 27 Jan 2015 (Local Time) from KBAD Reporting Station
Clear Clear  
Wind Chill: 40°   Ceiling: Unl
Heat Index: 40°   Visibility: 10mi
Dew Point: 36°   Wind: 0mph
Humidity: 85%   Direction: NA
Pressure: 30.06"   Gusts: NA
Location:  32.457°N, 93.7096°W
Report Text: KBAD 270758Z AUTO 00000KT 10SM CLR 04/02 A3006 RMK AO2 SLP182 T00430020 $
Loading
Personal Weather Stations






























Interactive Weather Map New forecast layout! Learn more

10-Day Weather Forecast

Advertisements
Track Severe Weather on mobile